createdAt,value
2022-10-05T00:00:27.367Z,0.65
2022-10-05T00:02:55.883Z,0.88
2022-10-05T00:05:32.524Z,0.55
2022-10-05T00:08:21.695Z,0.50
2022-10-05T00:10:49.520Z,0.40
2022-10-05T00:13:22.107Z,0.82
2022-10-05T00:15:50.421Z,0.50
2022-10-05T00:18:20.521Z,0.50
2022-10-05T00:20:49.061Z,0.30
2022-10-05T00:23:26.110Z,0.57
2022-10-05T00:25:53.306Z,0.47
2022-10-05T00:28:27.951Z,0.30
2022-10-05T00:30:57.386Z,0.45
2022-10-05T00:33:25.014Z,0.30
2022-10-05T00:35:55.246Z,0.40
2022-10-05T00:38:22.676Z,0.40
2022-10-05T00:41:10.027Z,0.40
2022-10-05T00:43:59.182Z,0.30
2022-10-05T00:46:41.342Z,0.80
2022-10-05T00:49:27.120Z,0.43
2022-10-05T00:52:30.116Z,0.70
2022-10-05T00:55:17.080Z,0.40
2022-10-05T00:58:11.455Z,0.43
2022-10-05T01:01:11.131Z,0.40
2022-10-05T01:03:48.636Z,0.40
2022-10-05T01:07:06.668Z,0.47
2022-10-05T01:09:45.067Z,0.32
2022-10-05T01:12:21.454Z,0.35
2022-10-05T01:14:57.674Z,0.40
2022-10-05T01:17:49.414Z,0.30
2022-10-05T01:20:39.646Z,0.30
2022-10-05T01:23:25.653Z,0.40
2022-10-05T01:26:44.352Z,0.40
2022-10-05T01:29:18.900Z,0.20
2022-10-05T01:32:15.139Z,0.30
2022-10-05T01:35:00.009Z,0.30
2022-10-05T01:37:27.156Z,0.32
2022-10-05T01:40:03.221Z,0.70
2022-10-05T01:42:56.076Z,0.30
2022-10-05T01:45:35.532Z,0.80
2022-10-05T01:48:16.217Z,0.60
2022-10-05T01:51:08.354Z,0.30
2022-10-05T01:53:46.579Z,0.30
2022-10-05T01:56:51.172Z,0.40
2022-10-05T01:59:44.459Z,0.40
2022-10-05T02:02:16.618Z,0.73
2022-10-05T02:05:19.878Z,1.38
2022-10-05T02:07:55.882Z,0.50
2022-10-05T02:10:38.737Z,0.45
2022-10-05T02:13:18.709Z,0.40
2022-10-05T02:15:53.376Z,0.50
2022-10-05T02:18:27.326Z,0.47
2022-10-05T02:20:56.736Z,0.40
2022-10-05T02:23:32.226Z,0.90
2022-10-05T02:26:01.759Z,0.47
2022-10-05T02:28:51.072Z,0.40
2022-10-05T02:31:38.100Z,0.50
2022-10-05T02:34:32.079Z,0.40
2022-10-05T02:37:33.049Z,0.60
2022-10-05T02:40:21.644Z,0.60
2022-10-05T02:42:59.331Z,0.40
2022-10-05T02:45:36.135Z,0.50
2022-10-05T02:48:12.353Z,1.20
2022-10-05T02:50:45.378Z,0.80
2022-10-05T02:53:24.576Z,0.50
2022-10-05T02:55:54.704Z,0.40
2022-10-05T02:58:27.176Z,1.02
2022-10-05T03:01:24.793Z,0.47
2022-10-05T03:04:10.982Z,0.30
2022-10-05T03:07:13.460Z,0.50
2022-10-05T03:10:08.646Z,0.40
2022-10-05T03:15:28.262Z,0.35
2022-10-05T03:18:14.342Z,0.40
2022-10-05T03:20:50.867Z,0.43
2022-10-05T03:23:30.746Z,0.50
2022-10-05T03:26:10.509Z,0.60
2022-10-05T03:28:47.712Z,0.50
2022-10-05T03:31:27.708Z,0.45
2022-10-05T03:34:24.316Z,0.60
2022-10-05T03:37:07.614Z,0.65
2022-10-05T03:39:41.827Z,0.60
2022-10-05T03:42:19.477Z,0.50
2022-10-05T03:44:56.185Z,0.63
2022-10-05T03:47:39.982Z,0.40
2022-10-05T03:50:32.520Z,1.15
2022-10-05T03:53:02.917Z,0.50
2022-10-05T03:55:45.514Z,0.50
2022-10-05T03:58:22.202Z,0.50
2022-10-05T04:00:56.227Z,0.70
2022-10-05T04:03:31.474Z,0.70
2022-10-05T04:06:23.159Z,0.50
2022-10-05T04:09:05.005Z,0.50
2022-10-05T04:11:38.519Z,0.45
2022-10-05T04:14:14.261Z,0.50
2022-10-05T04:16:52.563Z,0.55
2022-10-05T04:19:28.007Z,0.63
2022-10-05T04:22:10.026Z,0.60
2022-10-05T04:24:44.278Z,0.68
2022-10-05T04:30:12.610Z,0.73
2022-10-05T04:32:47.943Z,0.70
2022-10-05T04:35:27.159Z,0.63
2022-10-05T04:38:21.699Z,0.47
2022-10-05T04:40:49.312Z,0.82
2022-10-05T04:43:23.778Z,0.60
2022-10-05T04:48:40.453Z,0.80
2022-10-05T04:51:10.557Z,0.90
2022-10-05T04:53:50.173Z,0.50
2022-10-05T04:56:40.147Z,0.50
2022-10-05T04:59:37.783Z,0.70
2022-10-05T05:02:21.018Z,0.50
2022-10-05T05:05:00.428Z,0.50
2022-10-05T05:07:28.582Z,0.40
2022-10-05T05:10:14.169Z,0.40
2022-10-05T05:13:03.539Z,0.40
2022-10-05T05:15:38.399Z,0.40
2022-10-05T05:18:20.704Z,0.40
2022-10-05T05:20:57.170Z,0.50
2022-10-05T05:23:43.563Z,0.50
2022-10-05T05:26:22.276Z,0.45
2022-10-05T05:29:02.728Z,0.70
2022-10-05T05:31:47.444Z,0.60
2022-10-05T05:34:36.939Z,0.57
2022-10-05T05:37:23.667Z,0.50
2022-10-05T05:40:05.980Z,0.30
2022-10-05T05:42:59.337Z,0.40
2022-10-05T05:45:40.937Z,0.70
2022-10-05T05:48:20.307Z,0.30
2022-10-05T05:50:57.199Z,0.40
2022-10-05T05:53:35.585Z,0.57
2022-10-05T05:56:26.247Z,0.73
2022-10-05T05:59:14.346Z,1.02
2022-10-05T06:02:04.331Z,0.57
2022-10-05T06:04:38.480Z,0.50
2022-10-05T06:07:07.181Z,0.40
2022-10-05T06:09:40.363Z,0.73
2022-10-05T06:12:36.208Z,0.40
2022-10-05T06:15:22.274Z,0.50
2022-10-05T06:17:55.422Z,1.20
2022-10-05T06:20:36.247Z,0.50
2022-10-05T06:23:07.226Z,0.80
2022-10-05T06:25:42.939Z,0.73
2022-10-05T06:28:16.309Z,0.60
2022-10-05T06:31:10.196Z,0.75
2022-10-05T06:33:52.488Z,0.47
2022-10-05T06:36:47.619Z,0.50
2022-10-05T06:39:24.266Z,0.65
2022-10-05T06:42:13.766Z,0.60
2022-10-05T06:45:16.047Z,0.40
2022-10-05T06:48:27.454Z,0.40
2022-10-05T06:51:38.886Z,0.40
2022-10-05T06:54:19.767Z,0.38
2022-10-05T06:57:02.499Z,1.13
2022-10-05T06:59:40.357Z,0.40
2022-10-05T07:02:38.029Z,0.40
2022-10-05T07:05:20.642Z,0.40
2022-10-05T07:07:59.061Z,0.50
2022-10-05T07:10:58.934Z,0.47
2022-10-05T07:13:35.976Z,0.40
2022-10-05T07:16:32.340Z,0.57
2022-10-05T07:19:18.730Z,0.75
2022-10-05T07:24:58.207Z,0.60
2022-10-05T07:27:32.386Z,0.43
2022-10-05T07:30:10.673Z,0.57
2022-10-05T07:33:09.320Z,0.40
2022-10-05T07:36:08.987Z,0.35
2022-10-05T07:38:42.997Z,0.63
2022-10-05T07:44:02.070Z,0.35
2022-10-05T07:46:41.315Z,0.63
2022-10-05T07:49:26.817Z,0.30
2022-10-05T07:52:38.372Z,0.55
2022-10-05T07:55:17.911Z,0.47
2022-10-05T07:57:49.166Z,0.63
2022-10-05T08:00:20.876Z,0.40
2022-10-05T08:03:06.617Z,0.40
2022-10-05T08:05:37.357Z,0.70
2022-10-05T08:08:36.122Z,0.50
2022-10-05T08:11:16.418Z,0.40
2022-10-05T08:14:16.768Z,0.50
2022-10-05T08:16:46.763Z,2.90
2022-10-05T08:19:26.149Z,0.47
2022-10-05T08:22:01.912Z,0.73
2022-10-05T08:24:38.442Z,0.73
2022-10-05T08:27:09.765Z,1.25
2022-10-05T08:29:50.246Z,0.80
2022-10-05T08:32:25.824Z,0.70
2022-10-05T08:35:12.632Z,0.90
2022-10-05T08:37:43.128Z,0.90
2022-10-05T08:40:21.469Z,0.93
2022-10-05T08:43:01.879Z,0.75
2022-10-05T08:45:56.889Z,0.85
2022-10-05T08:51:15.347Z,1.17
2022-10-05T08:54:15.325Z,0.70
2022-10-05T08:56:46.884Z,1.33
2022-10-05T08:59:38.395Z,0.82
2022-10-05T09:02:27.427Z,0.60
2022-10-05T09:05:00.429Z,0.55
2022-10-05T09:07:57.368Z,0.60
2022-10-05T09:10:42.635Z,0.70
2022-10-05T09:13:28.454Z,0.50
2022-10-05T09:16:28.349Z,0.80
2022-10-05T09:19:04.402Z,0.60
2022-10-05T09:21:43.572Z,0.57
2022-10-05T09:24:22.805Z,0.70
2022-10-05T09:27:15.512Z,0.68
2022-10-05T09:30:07.471Z,0.55
2022-10-05T09:32:34.577Z,0.60
2022-10-05T09:35:04.654Z,0.70
2022-10-05T09:37:50.366Z,1.13
2022-10-05T09:40:23.389Z,1.05
2022-10-05T09:43:28.835Z,0.80
2022-10-05T09:46:34.970Z,0.70
2022-10-05T09:49:33.188Z,0.63
2022-10-05T09:52:00.550Z,0.90
2022-10-05T09:55:05.587Z,0.82
2022-10-05T09:57:45.778Z,0.70
2022-10-05T10:00:38.474Z,0.50
2022-10-05T10:03:12.273Z,0.60
2022-10-05T10:06:21.292Z,0.60
2022-10-05T10:08:58.129Z,0.80
2022-10-05T10:11:28.276Z,1.25
2022-10-05T10:14:29.335Z,0.70
2022-10-05T10:17:11.428Z,0.90
2022-10-05T10:20:23.526Z,0.75
2022-10-05T10:23:03.110Z,0.75
2022-10-05T10:26:00.795Z,0.90
2022-10-05T10:28:49.066Z,0.80
2022-10-05T10:31:36.926Z,0.75
2022-10-05T10:34:41.630Z,0.80
2022-10-05T10:37:58.607Z,0.80
2022-10-05T10:40:51.694Z,0.60
2022-10-05T10:43:56.199Z,0.90
2022-10-05T10:46:51.514Z,1.05
2022-10-05T10:50:00.545Z,1.33
2022-10-05T10:53:21.241Z,0.80
2022-10-05T10:56:04.150Z,1.42
2022-10-05T10:58:49.785Z,0.70
2022-10-05T11:01:49.212Z,1.05
2022-10-05T11:04:22.126Z,0.60
2022-10-05T11:07:29.936Z,0.80
2022-10-05T11:10:21.845Z,0.70
2022-10-05T11:13:12.624Z,0.85
2022-10-05T11:16:12.498Z,0.98
2022-10-05T11:19:03.013Z,0.77
2022-10-05T11:21:36.902Z,0.70
2022-10-05T11:24:19.462Z,0.60
2022-10-05T11:27:14.921Z,1.80
2022-10-05T11:30:25.735Z,1.00
2022-10-05T11:33:01.966Z,0.70
2022-10-05T11:35:47.233Z,1.00
2022-10-05T11:38:26.270Z,0.77
2022-10-05T11:41:22.503Z,0.70
2022-10-05T11:44:07.054Z,0.60
2022-10-05T11:46:54.854Z,1.10
2022-10-05T11:49:33.135Z,0.80
2022-10-05T11:52:21.509Z,1.10
2022-10-05T11:55:14.908Z,0.80
2022-10-05T11:57:58.745Z,1.10
2022-10-05T12:00:36.365Z,0.60
2022-10-05T12:03:27.723Z,1.38
2022-10-05T12:06:22.285Z,1.08
2022-10-05T12:09:23.558Z,0.50
2022-10-05T12:12:04.280Z,0.60
2022-10-05T12:14:41.300Z,0.63
2022-10-05T12:17:34.891Z,0.60
2022-10-05T12:20:41.444Z,0.47
2022-10-05T12:23:30.405Z,0.50
2022-10-05T12:26:14.964Z,0.50
2022-10-05T12:28:46.630Z,0.50
2022-10-05T12:31:40.073Z,0.47
2022-10-05T12:34:40.481Z,0.50
2022-10-05T12:37:37.384Z,0.90
2022-10-05T12:40:19.492Z,0.30
2022-10-05T12:43:22.018Z,0.43
2022-10-05T12:46:27.493Z,0.88
2022-10-05T12:49:14.426Z,0.68
2022-10-05T12:51:56.548Z,0.60
2022-10-05T12:54:42.480Z,0.77
2022-10-05T12:57:27.743Z,0.50
2022-10-05T13:00:08.600Z,0.43
2022-10-05T13:02:50.963Z,0.60
2022-10-05T13:05:25.500Z,0.40
2022-10-05T13:10:40.166Z,0.50
2022-10-05T13:13:20.745Z,0.70
2022-10-05T13:16:11.196Z,0.50
2022-10-05T13:18:44.839Z,0.85
2022-10-05T13:21:48.805Z,0.93
2022-10-05T13:24:17.414Z,1.02
2022-10-05T13:26:49.784Z,1.02
2022-10-05T13:29:46.047Z,0.80
2022-10-05T13:32:25.058Z,1.25
2022-10-05T13:35:16.440Z,1.45
2022-10-05T13:37:46.676Z,1.38
2022-10-05T13:40:54.015Z,1.10
2022-10-05T13:43:39.579Z,1.77
2022-10-05T13:46:20.759Z,1.58
2022-10-05T13:49:00.312Z,1.05
2022-10-05T13:52:01.286Z,1.60
2022-10-05T13:54:37.473Z,1.33
2022-10-05T13:57:10.716Z,1.10
2022-10-05T13:59:44.901Z,0.40
2022-10-05T14:02:27.514Z,0.25
2022-10-05T14:05:02.973Z,0.20
2022-10-05T14:07:48.106Z,0.20
2022-10-05T14:10:34.932Z,0.20
2022-10-05T14:13:26.812Z,0.20
2022-10-05T14:16:14.622Z,0.28
2022-10-05T14:19:18.862Z,0.20
2022-10-05T14:22:14.529Z,0.40
2022-10-05T14:24:54.249Z,0.28
2022-10-05T14:27:23.460Z,0.20
2022-10-05T14:30:22.252Z,0.30
2022-10-05T14:33:04.695Z,0.20
2022-10-05T14:35:49.098Z,0.20
2022-10-05T14:38:19.329Z,0.20
2022-10-05T14:41:02.345Z,0.20
2022-10-05T14:43:30.304Z,0.25
2022-10-05T14:46:25.309Z,0.17
2022-10-05T14:49:25.778Z,0.20
2022-10-05T14:51:54.637Z,0.20
2022-10-05T14:55:05.460Z,0.20
2022-10-05T14:57:39.331Z,0.20
2022-10-05T15:00:17.791Z,0.20
2022-10-05T15:03:18.183Z,0.20
2022-10-05T15:05:53.514Z,0.60
2022-10-05T15:08:50.929Z,0.15
2022-10-05T15:11:33.997Z,0.20
2022-10-05T15:14:06.271Z,0.20
2022-10-05T15:16:39.172Z,0.17
2022-10-05T15:19:26.746Z,0.20
2022-10-05T15:22:06.247Z,0.20
2022-10-05T15:25:13.211Z,0.30
2022-10-05T15:28:04.045Z,0.17
2022-10-05T15:30:37.587Z,0.20
2022-10-05T15:33:27.830Z,0.30
2022-10-05T15:36:02.359Z,0.20
2022-10-05T15:41:18.498Z,0.30
2022-10-05T15:43:47.499Z,0.20
2022-10-05T15:46:24.585Z,0.20
2022-10-05T15:49:10.169Z,0.25
2022-10-05T15:52:05.137Z,0.10
2022-10-05T15:54:47.070Z,0.20
2022-10-05T15:57:21.024Z,0.20
2022-10-05T16:00:10.364Z,0.28
2022-10-05T16:02:48.027Z,0.17
2022-10-05T16:06:02.427Z,0.15
2022-10-05T16:08:54.404Z,0.20
2022-10-05T16:11:40.714Z,0.30
2022-10-05T16:14:28.083Z,0.28
2022-10-05T16:17:17.997Z,0.20
2022-10-05T16:19:56.746Z,0.20
2022-10-05T16:22:59.472Z,0.30
2022-10-05T16:25:49.333Z,0.28
2022-10-05T16:28:39.388Z,0.20
2022-10-05T16:31:31.462Z,0.10
2022-10-05T16:34:19.077Z,0.30
2022-10-05T16:37:24.439Z,0.20
2022-10-05T16:40:12.974Z,0.20
2022-10-05T16:42:46.714Z,0.30
2022-10-05T16:45:45.756Z,0.30
2022-10-05T16:48:51.647Z,0.30
2022-10-05T16:51:50.790Z,0.30
2022-10-05T16:54:20.350Z,0.40
2022-10-05T16:56:59.867Z,0.40
2022-10-05T16:59:56.549Z,0.30
2022-10-05T17:02:39.249Z,0.50
2022-10-05T17:05:12.502Z,0.30
2022-10-05T17:07:43.087Z,0.30
2022-10-05T17:10:33.864Z,0.55
2022-10-05T17:13:43.625Z,0.50
2022-10-05T17:16:25.968Z,0.50
2022-10-05T17:19:11.311Z,0.40
2022-10-05T17:22:00.895Z,0.60
2022-10-05T17:24:36.702Z,0.80
2022-10-05T17:27:50.997Z,0.70
2022-10-05T17:30:23.580Z,1.00
2022-10-05T17:33:04.779Z,0.73
2022-10-05T17:35:51.895Z,0.50
2022-10-05T17:38:30.672Z,0.70
2022-10-05T17:41:06.506Z,0.40
2022-10-05T17:43:34.419Z,0.40
2022-10-05T17:46:07.123Z,0.25
2022-10-05T17:48:42.337Z,0.40
2022-10-05T17:51:48.426Z,0.47
2022-10-05T17:54:48.196Z,0.40
2022-10-05T17:57:18.523Z,0.60
2022-10-05T17:59:57.805Z,1.00
2022-10-05T18:02:40.042Z,0.55
2022-10-05T18:05:12.485Z,0.85
2022-10-05T18:07:48.252Z,0.68
2022-10-05T18:10:23.324Z,1.42
2022-10-05T18:13:19.817Z,0.80
2022-10-05T18:15:49.290Z,0.80
2022-10-05T18:18:35.304Z,2.00
2022-10-05T18:21:05.733Z,1.55
2022-10-05T18:23:36.284Z,0.82
2022-10-05T18:26:26.065Z,0.70
2022-10-05T18:29:44.765Z,0.55
2022-10-05T18:32:50.264Z,0.60
2022-10-05T18:35:29.648Z,0.65
2022-10-05T18:38:24.567Z,0.40
2022-10-05T18:41:17.422Z,0.70
2022-10-05T18:44:19.184Z,0.63
2022-10-05T18:46:50.910Z,1.20
2022-10-05T18:49:48.255Z,1.60
2022-10-05T18:52:40.151Z,3.05
2022-10-05T18:55:35.397Z,3.33
2022-10-05T18:58:30.723Z,1.65
2022-10-05T19:01:27.007Z,1.17
2022-10-05T19:04:18.193Z,0.80
2022-10-05T19:07:04.877Z,0.65
2022-10-05T19:09:40.923Z,0.50
2022-10-05T19:12:29.526Z,0.50
2022-10-05T19:15:09.403Z,0.55
2022-10-05T19:18:04.707Z,0.60
2022-10-05T19:23:14.108Z,0.57
2022-10-05T19:26:07.839Z,1.00
2022-10-05T19:28:45.474Z,0.82
2022-10-05T19:31:12.873Z,0.60
2022-10-05T19:34:05.992Z,0.60
2022-10-05T19:37:03.408Z,1.00
2022-10-05T19:40:04.557Z,0.98
2022-10-05T19:42:56.455Z,0.75
2022-10-05T19:45:26.745Z,0.80
2022-10-05T19:48:35.495Z,1.20
2022-10-05T19:51:11.289Z,0.70
2022-10-05T19:53:45.967Z,0.80
2022-10-05T19:58:49.272Z,0.77
2022-10-05T20:01:42.015Z,0.70
2022-10-05T20:04:10.626Z,0.90
2022-10-05T20:06:39.692Z,1.10
2022-10-05T20:09:21.606Z,1.33
2022-10-05T20:11:52.884Z,1.35
2022-10-05T20:14:32.331Z,0.70
2022-10-05T20:17:44.631Z,0.70
2022-10-05T20:20:47.164Z,0.85
2022-10-05T20:23:24.666Z,0.85
2022-10-05T20:26:11.617Z,0.90
2022-10-05T20:28:39.091Z,0.80
2022-10-05T20:31:08.019Z,1.20
2022-10-05T20:33:35.451Z,0.98
2022-10-05T20:36:03.763Z,0.70
2022-10-05T20:38:35.199Z,1.30
2022-10-05T20:41:04.711Z,0.90
2022-10-05T20:43:31.940Z,1.17
2022-10-05T20:45:59.502Z,1.85
2022-10-05T20:48:27.385Z,1.65
2022-10-05T20:50:54.875Z,1.08
2022-10-05T20:53:22.264Z,1.83
2022-10-05T20:55:49.543Z,1.02
2022-10-05T20:58:18.054Z,1.17
2022-10-05T21:01:03.972Z,1.35
2022-10-05T21:03:31.211Z,0.95
2022-10-05T21:05:58.617Z,1.33
2022-10-05T21:08:26.276Z,1.30
2022-10-05T21:10:53.851Z,1.23
2022-10-05T21:13:21.075Z,1.08
2022-10-05T21:15:48.417Z,1.15
2022-10-05T21:18:15.828Z,1.05
2022-10-05T21:20:43.188Z,1.65
2022-10-05T21:23:12.301Z,1.35
2022-10-05T21:25:39.540Z,1.17
2022-10-05T21:28:06.920Z,1.30
2022-10-05T21:30:34.217Z,1.70
2022-10-05T21:33:01.486Z,0.98
2022-10-05T21:35:28.768Z,1.00
2022-10-05T21:37:56.333Z,1.15
2022-10-05T21:40:24.002Z,1.33
2022-10-05T21:42:51.260Z,1.52
2022-10-05T21:45:18.505Z,2.00
2022-10-05T21:47:45.976Z,1.30
2022-10-05T21:50:13.535Z,1.17
2022-10-05T21:52:40.893Z,1.48
2022-10-05T21:55:08.711Z,1.42
2022-10-05T21:57:36.644Z,1.23
2022-10-05T22:00:08.078Z,1.08
2022-10-05T22:02:35.674Z,1.05
2022-10-05T22:05:03.299Z,2.20
2022-10-05T22:07:30.962Z,2.50
2022-10-05T22:09:58.300Z,1.92
2022-10-05T22:12:26.540Z,0.80
2022-10-05T22:14:54.315Z,1.15
2022-10-05T22:17:32.584Z,1.40
2022-10-05T22:20:00.512Z,1.00
2022-10-05T22:22:28.389Z,2.05
2022-10-05T22:24:56.263Z,1.65
2022-10-05T22:27:26.117Z,1.33
2022-10-05T22:29:54.991Z,1.80
2022-10-05T22:32:22.321Z,1.08
2022-10-05T22:34:49.742Z,1.38
2022-10-05T22:37:17.373Z,1.50
2022-10-05T22:39:44.747Z,1.48
2022-10-05T22:42:12.055Z,1.27
2022-10-05T22:44:40.374Z,3.30
2022-10-05T22:47:08.023Z,1.40
2022-10-05T22:49:35.328Z,2.00
2022-10-05T22:52:02.608Z,2.35
2022-10-05T22:54:32.453Z,1.60
2022-10-05T22:57:01.566Z,0.90
2022-10-05T22:59:31.021Z,0.77
2022-10-05T23:01:58.689Z,1.15
2022-10-05T23:04:26.095Z,1.10
2022-10-05T23:06:53.349Z,1.20
2022-10-05T23:09:20.596Z,1.13
2022-10-05T23:11:52.162Z,0.95
2022-10-05T23:14:19.680Z,1.35
2022-10-05T23:16:47.770Z,1.05
2022-10-05T23:19:15.264Z,1.75
2022-10-05T23:21:42.813Z,1.55
2022-10-05T23:24:10.203Z,1.35
2022-10-05T23:26:37.491Z,1.80
2022-10-05T23:29:04.767Z,1.63
2022-10-05T23:31:33.614Z,1.25
2022-10-05T23:34:00.994Z,2.95
2022-10-05T23:36:32.435Z,1.27
2022-10-05T23:39:00.339Z,1.27
2022-10-05T23:41:27.713Z,1.33
2022-10-05T23:43:55.381Z,1.30
2022-10-05T23:46:23.210Z,2.15
2022-10-05T23:48:50.641Z,1.10
2022-10-05T23:51:18.824Z,1.00
2022-10-05T23:53:46.171Z,2.08
2022-10-05T23:56:13.564Z,1.73
2022-10-05T23:58:41.163Z,1.00
